Time;durP1;ratioP1;P1;durP2;ratioP2;P2;SDS_P1;SDS_P2;PMS_P1;PMS_P2;Temp;Humidity;BMP_temperature;BMP_pressure;BME280_temperature;BME280_humidity;BME280_pressure;Samples;Min_cycle;Max_cycle;Signal;HPM_P1;HPM_P2
2021/01/31 00:00:36;;;;;;;9.93;9.03;;;3.00;99.90;;;;;;4985452;28;20182;-87
2021/01/31 00:03:04;;;;;;;9.43;8.43;;;3.10;99.90;;;;;;5005026;28;20170;-88
2021/01/31 00:05:30;;;;;;;9.77;8.77;;;3.00;99.90;;;;;;5005393;28;20182;-88
2021/01/31 00:07:57;;;;;;;9.67;8.70;;;3.10;99.90;;;;;;5003767;28;20214;-88
2021/01/31 00:10:26;;;;;;;10.60;9.33;;;3.20;99.90;;;;;;5004946;28;20236;-88
2021/01/31 00:12:52;;;;;;;9.57;8.67;;;3.20;99.90;;;;;;5004666;28;20209;-88
2021/01/31 00:15:20;;;;;;;10.13;9.13;;;3.20;99.70;;;;;;5005116;28;20174;-88
2021/01/31 00:17:46;;;;;;;9.83;8.90;;;3.20;99.80;;;;;;5003257;28;20700;-88
2021/01/31 00:20:14;;;;;;;9.97;8.97;;;3.10;99.90;;;;;;5006774;28;20178;-88
2021/01/31 00:22:40;;;;;;;9.73;8.73;;;3.20;99.90;;;;;;4990266;28;20190;-88
2021/01/31 00:25:06;;;;;;;9.13;8.33;;;3.20;99.80;;;;;;4989633;28;20203;-88
2021/01/31 00:27:32;;;;;;;10.07;9.07;;;3.10;99.90;;;;;;5023503;28;20225;-88
2021/01/31 00:29:58;;;;;;;10.10;9.10;;;3.20;99.90;;;;;;5008697;28;20178;-88
2021/01/31 00:32:25;;;;;;;9.73;8.73;;;3.20;99.80;;;;;;5008310;28;20195;-88
2021/01/31 00:34:56;;;;;;;9.20;8.33;;;3.10;99.60;;;;;;5007244;28;20249;-88
2021/01/31 00:37:22;;;;;;;9.53;8.63;;;3.20;99.70;;;;;;5008203;28;20198;-87
2021/01/31 00:39:50;;;;;;;9.40;8.43;;;3.20;99.30;;;;;;4996391;28;20190;-88
2021/01/31 00:42:17;;;;;;;10.60;8.50;;;3.20;99.60;;;;;;4988847;28;20241;-87
2021/01/31 00:44:49;;;;;;;10.07;9.07;;;3.20;98.50;;;;;;4989275;28;20309;-88
2021/01/31 00:47:15;;;;;;;10.10;8.97;;;3.30;99.00;;;;;;4988935;28;20225;-88
2021/01/31 00:49:45;;;;;;;9.37;8.47;;;3.20;99.20;;;;;;4988907;28;20175;-87
2021/01/31 00:52:11;;;;;;;9.93;9.03;;;3.10;99.10;;;;;;5001426;28;20218;-87
2021/01/31 00:54:37;;;;;;;9.87;8.87;;;3.10;99.60;;;;;;5006716;28;20193;-87
2021/01/31 00:57:04;;;;;;;9.77;8.87;;;3.00;99.70;;;;;;5010793;28;20206;-88
2021/01/31 00:59:30;;;;;;;10.63;9.53;;;3.00;99.60;;;;;;5008126;28;20182;-88
2021/01/31 01:01:55;;;;;;;10.97;9.93;;;3.00;99.70;;;;;;4997298;28;20189;-87
2021/01/31 01:04:21;;;;;;;10.93;9.67;;;3.00;99.10;;;;;;4988551;28;20187;-88
2021/01/31 01:06:47;;;;;;;10.00;9.00;;;3.00;99.40;;;;;;4988567;28;20210;-87
2021/01/31 01:09:13;;;;;;;10.90;9.77;;;3.00;99.50;;;;;;4972828;28;20269;-87
2021/01/31 01:11:39;;;;;;;9.93;9.03;;;2.90;99.30;;;;;;4996048;28;20274;-87
2021/01/31 01:14:06;;;;;;;10.43;9.40;;;2.90;99.90;;;;;;5006777;28;20182;-87
2021/01/31 01:16:33;;;;;;;11.70;10.20;;;3.00;99.90;;;;;;5007386;28;20258;-87
2021/01/31 01:18:59;;;;;;;10.87;9.40;;;3.00;99.60;;;;;;5008136;28;20187;-86
2021/01/31 01:21:25;;;;;;;11.43;9.23;;;3.10;99.10;;;;;;4995467;28;20202;-87
2021/01/31 01:23:51;;;;;;;9.60;8.70;;;3.10;99.10;;;;;;4981596;28;20199;-87
2021/01/31 01:26:17;;;;;;;9.27;8.27;;;3.10;98.60;;;;;;4994305;28;20222;-86
2021/01/31 01:28:42;;;;;;;11.17;9.47;;;3.00;97.90;;;;;;5003914;28;20747;-86
2021/01/31 01:31:08;;;;;;;10.67;9.53;;;2.90;98.20;;;;;;5021516;28;20209;-87
2021/01/31 01:33:34;;;;;;;9.80;8.80;;;3.00;98.60;;;;;;5011845;28;20273;-86
2021/01/31 01:35:59;;;;;;;10.03;8.93;;;2.90;98.50;;;;;;5008645;28;20186;-86
2021/01/31 01:38:25;;;;;;;10.93;9.83;;;2.90;99.10;;;;;;5008374;28;20249;-87
2021/01/31 01:40:55;;;;;;;9.90;8.90;;;2.90;99.20;;;;;;5007329;28;20191;-88
2021/01/31 01:43:22;;;;;;;10.57;9.40;;;2.90;99.00;;;;;;5008465;28;20162;-86
2021/01/31 01:46:12;;;;;;;10.60;9.23;;;2.90;99.30;;;;;;5007899;28;20213;-87
2021/01/31 01:48:38;;;;;;;10.63;9.17;;;2.90;99.20;;;;;;5008207;28;20206;-87
2021/01/31 01:51:04;;;;;;;10.67;9.57;;;3.00;99.20;;;;;;5006875;28;20178;-86
2021/01/31 01:53:30;;;;;;;9.50;8.50;;;3.00;98.80;;;;;;5008257;28;20193;-87
2021/01/31 01:56:13;;;;;;;9.27;8.37;;;2.90;97.70;;;;;;5007596;28;20178;-86
2021/01/31 01:58:40;;;;;;;9.37;8.30;;;2.90;98.10;;;;;;5023123;28;20221;-87
2021/01/31 02:01:07;;;;;;;8.63;7.73;;;2.90;97.50;;;;;;5006218;28;20190;-86
2021/01/31 02:03:38;;;;;;;10.83;9.80;;;2.90;97.80;;;;;;5007611;28;20205;-86
2021/01/31 02:06:13;;;;;;;11.10;9.80;;;2.80;98.60;;;;;;5007688;28;20199;-86
2021/01/31 02:08:40;;;;;;;9.87;8.87;;;2.80;98.10;;;;;;5008021;28;20201;-86
2021/01/31 02:11:07;;;;;;;10.00;9.00;;;2.80;98.30;;;;;;5004976;28;20170;-87
2021/01/31 02:13:35;;;;;;;9.77;8.43;;;2.80;98.30;;;;;;4987894;28;20179;-87
2021/01/31 02:16:03;;;;;;;11.10;9.30;;;2.80;98.30;;;;;;4986909;28;20199;-86
2021/01/31 02:18:34;;;;;;;9.93;8.43;;;2.80;97.10;;;;;;4987990;28;20266;-86
2021/01/31 02:21:05;;;;;;;9.43;8.53;;;2.80;97.60;;;;;;4988198;28;20274;-87
2021/01/31 02:23:55;;;;;;;10.43;9.03;;;2.80;98.60;;;;;;4988484;28;20218;-86
2021/01/31 02:26:39;;;;;;;9.10;8.20;;;2.80;97.60;;;;;;4999295;28;20304;-87
2021/01/31 02:29:26;;;;;;;8.70;7.80;;;2.80;98.00;;;;;;5022556;28;20186;-87
2021/01/31 02:31:58;;;;;;;10.13;9.13;;;2.90;97.00;;;;;;5007653;28;20261;-86
2021/01/31 02:34:45;;;;;;;10.63;9.13;;;2.80;97.30;;;;;;4993620;28;20190;-87
2021/01/31 02:37:23;;;;;;;10.33;8.67;;;2.80;97.90;;;;;;4988063;28;20208;-87
2021/01/31 02:40:09;;;;;;;9.77;8.87;;;2.80;97.20;;;;;;4986532;28;20195;-87
2021/01/31 02:42:43;;;;;;;10.57;9.47;;;2.80;97.00;;;;;;4986825;28;20171;-87
2021/01/31 02:45:25;;;;;;;9.00;8.10;;;2.80;97.20;;;;;;4987882;28;20171;-87
2021/01/31 02:48:21;;;;;;;8.67;7.73;;;2.90;96.30;;;;;;4988752;28;20264;-87
2021/01/31 02:51:28;;;;;;;9.23;8.30;;;2.80;95.40;;;;;;4995894;28;20179;-86
2021/01/31 02:54:06;;;;;;;9.03;8.00;;;2.80;96.00;;;;;;5005045;28;20201;-87
2021/01/31 02:56:37;;;;;;;9.23;8.33;;;2.80;96.80;;;;;;5002404;28;20194;-87
2021/01/31 02:59:11;;;;;;;8.70;7.90;;;2.80;95.70;;;;;;4998306;28;20186;-87
2021/01/31 03:01:52;;;;;;;9.13;8.23;;;2.80;95.00;;;;;;4987701;28;20190;-86
2021/01/31 03:04:38;;;;;;;9.53;8.60;;;2.80;95.80;;;;;;4987507;28;20198;-87
2021/01/31 03:07:14;;;;;;;8.77;7.87;;;2.90;95.10;;;;;;4985710;28;20269;-87
2021/01/31 03:09:47;;;;;;;9.30;8.40;;;2.90;95.20;;;;;;5003067;28;20170;-87
2021/01/31 03:12:27;;;;;;;9.20;8.30;;;2.90;94.80;;;;;;5006736;28;20166;-86
2021/01/31 03:14:59;;;;;;;9.20;8.30;;;3.00;94.30;;;;;;5004848;28;20182;-86
2021/01/31 03:17:37;;;;;;;9.07;8.20;;;3.00;94.70;;;;;;5005303;28;20210;-87
2021/01/31 03:20:10;;;;;;;8.90;8.00;;;3.00;94.00;;;;;;4987101;28;20203;-87
2021/01/31 03:22:51;;;;;;;9.10;8.20;;;3.00;93.90;;;;;;4987026;28;20171;-86
2021/01/31 03:25:29;;;;;;;8.80;7.90;;;2.90;95.00;;;;;;4985402;28;20229;-87
2021/01/31 03:27:55;;;;;;;9.97;8.97;;;2.90;94.80;;;;;;4988338;28;20211;-88
2021/01/31 03:30:21;;;;;;;9.47;8.57;;;2.90;94.60;;;;;;5004924;28;20182;-87
2021/01/31 03:33:19;;;;;;;10.07;9.07;;;2.70;94.60;;;;;;5006471;28;21006;-86
2021/01/31 03:35:48;;;;;;;8.53;7.63;;;2.70;95.80;;;;;;5007316;28;20210;-86
2021/01/31 03:38:13;;;;;;;9.37;8.37;;;2.70;95.20;;;;;;5006873;28;20202;-86
2021/01/31 03:40:43;;;;;;;9.67;8.67;;;2.60;96.20;;;;;;5006068;28;20205;-87
2021/01/31 03:43:09;;;;;;;9.77;8.77;;;2.70;96.50;;;;;;5004799;28;20178;-87
2021/01/31 03:45:51;;;;;;;9.50;8.50;;;2.70;95.60;;;;;;5004869;28;20195;-87
2021/01/31 03:48:22;;;;;;;8.87;7.90;;;2.70;96.20;;;;;;5006264;28;20202;-87
2021/01/31 03:50:48;;;;;;;9.77;8.70;;;2.80;95.20;;;;;;5006212;28;20184;-87
2021/01/31 03:53:14;;;;;;;9.40;8.23;;;2.70;96.10;;;;;;5004856;28;20182;-87
2021/01/31 03:55:43;;;;;;;9.67;8.67;;;2.70;96.90;;;;;;5009119;28;20186;-86
2021/01/31 03:58:12;;;;;;;8.87;7.97;;;2.70;94.50;;;;;;4994553;28;20551;-87
2021/01/31 04:00:48;;;;;;;9.03;8.20;;;2.80;95.50;;;;;;4990869;28;20179;-83
2021/01/31 04:03:20;;;;;;;9.23;8.33;;;2.80;94.00;;;;;;4990477;28;20170;-87
2021/01/31 04:06:00;;;;;;;9.50;8.50;;;2.70;93.80;;;;;;4990692;28;20701;-87
2021/01/31 04:08:29;;;;;;;9.37;8.37;;;2.70;94.90;;;;;;4989114;28;20262;-87
2021/01/31 04:10:55;;;;;;;10.17;9.13;;;2.70;95.00;;;;;;4990071;28;20179;-86
2021/01/31 04:13:22;;;;;;;8.87;7.97;;;2.70;95.30;;;;;;4990263;28;20175;-86
2021/01/31 04:15:56;;;;;;;9.60;8.70;;;2.80;94.40;;;;;;4990069;28;20175;-87
2021/01/31 04:18:23;;;;;;;9.17;8.27;;;2.80;93.90;;;;;;5006976;28;20262;-87
2021/01/31 04:20:50;;;;;;;9.43;8.47;;;2.80;93.80;;;;;;5004613;28;20193;-87
2021/01/31 04:23:17;;;;;;;10.30;8.47;;;2.70;94.00;;;;;;5002899;28;20175;-87
2021/01/31 04:25:43;;;;;;;9.37;8.47;;;2.70;94.00;;;;;;5003131;28;20261;-87
2021/01/31 04:28:13;;;;;;;9.73;8.73;;;2.70;94.00;;;;;;5003293;28;20202;-87
2021/01/31 04:30:39;;;;;;;10.63;9.17;;;2.70;94.30;;;;;;5002704;28;20210;-87
2021/01/31 04:33:06;;;;;;;9.50;8.50;;;2.60;93.50;;;;;;5002848;28;20185;-87
2021/01/31 04:35:32;;;;;;;9.77;8.80;;;2.60;93.80;;;;;;5003008;28;20721;-87
2021/01/31 04:37:58;;;;;;;9.93;8.93;;;2.60;94.10;;;;;;5002844;28;20288;-86
2021/01/31 04:40:24;;;;;;;10.30;9.10;;;2.70;93.70;;;;;;5007534;28;20179;-88
2021/01/31 04:42:50;;;;;;;9.50;8.60;;;2.60;94.60;;;;;;5015190;28;20241;-87
2021/01/31 04:45:16;;;;;;;9.13;8.23;;;2.70;94.00;;;;;;5004318;28;20190;-86
2021/01/31 04:47:51;;;;;;;9.50;8.60;;;2.70;94.20;;;;;;5005161;28;20241;-86
2021/01/31 04:50:39;;;;;;;10.27;9.27;;;2.70;94.10;;;;;;5005602;28;20170;-87
2021/01/31 04:53:16;;;;;;;10.33;9.27;;;2.80;92.70;;;;;;5005394;28;20221;-86
2021/01/31 04:55:53;;;;;;;9.83;8.67;;;2.70;93.70;;;;;;4997936;28;20175;-87
2021/01/31 04:58:25;;;;;;;10.60;9.50;;;2.70;93.40;;;;;;4984579;28;20202;-87
2021/01/31 05:01:03;;;;;;;10.67;9.57;;;2.70;92.40;;;;;;4984418;28;20175;-86
2021/01/31 05:03:33;;;;;;;10.30;9.30;;;2.70;92.20;;;;;;4985709;28;20230;-87
2021/01/31 05:06:16;;;;;;;10.60;9.27;;;2.70;93.30;;;;;;4985037;28;20179;-87
2021/01/31 05:08:46;;;;;;;10.00;9.00;;;2.70;93.20;;;;;;4984636;28;20202;-87
2021/01/31 05:11:43;;;;;;;9.80;8.73;;;2.60;93.50;;;;;;4985612;28;20535;-87
2021/01/31 05:14:34;;;;;;;9.97;9.00;;;2.60;92.50;;;;;;4983661;28;20191;-87
2021/01/31 05:17:00;;;;;;;9.87;8.93;;;2.50;93.10;;;;;;4985245;28;20207;-87
2021/01/31 05:19:29;;;;;;;11.60;9.70;;;2.40;94.40;;;;;;4985532;28;20186;-87
2021/01/31 05:21:55;;;;;;;11.43;10.07;;;2.40;94.00;;;;;;4984753;28;20593;-86
2021/01/31 05:24:22;;;;;;;10.07;8.93;;;2.40;95.00;;;;;;4985432;28;20551;-87
2021/01/31 05:26:57;;;;;;;10.30;9.23;;;2.40;93.90;;;;;;4985017;28;20215;-86
2021/01/31 05:29:29;;;;;;;9.73;8.63;;;2.40;94.30;;;;;;4985267;28;20247;-87
2021/01/31 05:32:10;;;;;;;11.40;9.93;;;2.30;94.10;;;;;;4985036;28;20273;-87
2021/01/31 05:34:39;;;;;;;10.70;9.60;;;2.30;93.80;;;;;;4995154;28;20217;-86
2021/01/31 05:37:09;;;;;;;11.67;9.90;;;2.40;94.90;;;;;;5004812;28;20194;-87
2021/01/31 05:39:44;;;;;;;10.97;9.87;;;2.30;94.30;;;;;;5004505;28;20179;-86
2021/01/31 05:42:17;;;;;;;12.10;10.60;;;2.30;94.10;;;;;;5005602;28;20166;-87
2021/01/31 05:44:43;;;;;;;12.27;9.40;;;2.30;94.60;;;;;;5003734;28;20241;-87
2021/01/31 05:47:22;;;;;;;10.30;8.87;;;2.40;94.00;;;;;;5004308;28;20260;-87
2021/01/31 05:49:51;;;;;;;10.63;9.53;;;2.40;92.80;;;;;;5004375;28;20577;-87
2021/01/31 05:52:22;;;;;;;12.17;9.60;;;2.40;94.30;;;;;;5004224;28;20174;-87
2021/01/31 05:54:53;;;;;;;11.33;9.70;;;2.40;93.60;;;;;;4993343;28;20198;-87
2021/01/31 05:57:36;;;;;;;10.30;9.23;;;2.50;94.20;;;;;;4984866;28;20591;-87
2021/01/31 06:00:19;;;;;;;9.97;8.83;;;2.50;93.10;;;;;;4984661;28;20190;-87
2021/01/31 06:03:03;;;;;;;12.30;9.70;;;2.50;93.20;;;;;;4986248;28;20194;-87
2021/01/31 06:05:30;;;;;;;11.30;9.10;;;2.40;93.10;;;;;;4984831;28;20181;-86
2021/01/31 06:08:07;;;;;;;10.47;8.87;;;2.40;92.40;;;;;;4984733;28;20219;-87
2021/01/31 06:10:39;;;;;;;12.37;9.47;;;2.30;93.30;;;;;;4984676;28;20178;-87
2021/01/31 06:13:10;;;;;;;14.40;9.67;;;2.30;94.50;;;;;;4983267;28;20262;-87
2021/01/31 06:15:42;;;;;;;10.43;9.33;;;2.30;94.70;;;;;;4986451;28;20622;-87
2021/01/31 06:18:23;;;;;;;14.33;11.87;;;2.30;94.00;;;;;;5017840;28;20218;-87
2021/01/31 06:20:49;;;;;;;10.43;9.33;;;2.40;93.40;;;;;;5004859;28;20178;-87
2021/01/31 06:23:39;;;;;;;12.10;10.90;;;2.40;93.10;;;;;;5002589;28;20182;-87
2021/01/31 06:26:05;;;;;;;11.17;10.17;;;2.40;94.10;;;;;;5003672;28;20205;-87
2021/01/31 06:28:59;;;;;;;11.93;10.73;;;2.50;93.80;;;;;;5003664;28;20244;-87
2021/01/31 06:31:49;;;;;;;11.43;10.23;;;2.40;93.80;;;;;;5011962;28;20194;-87
2021/01/31 06:34:14;;;;;;;11.13;9.97;;;2.40;93.10;;;;;;5005086;28;20166;-87
2021/01/31 06:37:26;;;;;;;12.47;9.43;;;2.40;93.60;;;;;;5005127;28;20179;-86
2021/01/31 06:40:12;;;;;;;10.33;9.23;;;2.30;93.10;;;;;;5016542;28;20198;-86
2021/01/31 06:43:03;;;;;;;10.30;9.27;;;2.30;93.70;;;;;;4984482;28;20183;-87
2021/01/31 06:45:35;;;;;;;10.87;9.77;;;2.20;93.40;;;;;;4985011;28;20179;-87
2021/01/31 06:48:28;;;;;;;11.40;10.30;;;2.30;94.30;;;;;;4985130;28;20213;-87
2021/01/31 06:50:59;;;;;;;10.37;9.37;;;2.30;94.40;;;;;;5000384;28;20246;-86
2021/01/31 06:53:51;;;;;;;11.10;9.93;;;2.40;93.80;;;;;;4985213;28;20539;-87
2021/01/31 06:56:19;;;;;;;11.13;9.43;;;2.40;92.90;;;;;;4984982;28;20657;-87
2021/01/31 06:59:03;;;;;;;12.30;11.03;;;2.50;93.20;;;;;;5003524;28;20609;-87
2021/01/31 07:01:58;;;;;;;10.43;9.43;;;2.40;92.90;;;;;;4993952;28;20187;-87
2021/01/31 07:04:51;;;;;;;10.87;9.77;;;2.50;93.10;;;;;;4985744;28;20167;-88
2021/01/31 07:07:29;;;;;;;10.80;9.70;;;2.50;92.80;;;;;;4985597;28;20207;-86
2021/01/31 07:10:15;;;;;;;11.97;10.13;;;2.60;93.10;;;;;;5000719;28;20197;-87
2021/01/31 07:13:05;;;;;;;10.67;9.60;;;2.40;92.30;;;;;;4985067;28;20171;-86
2021/01/31 07:16:01;;;;;;;11.43;9.77;;;2.40;92.20;;;;;;5000232;28;20198;-85
2021/01/31 07:18:32;;;;;;;11.80;10.17;;;2.50;93.60;;;;;;4995232;28;20261;-88
2021/01/31 07:20:59;;;;;;;11.93;10.73;;;2.50;92.30;;;;;;4985795;28;20167;-88
2021/01/31 07:23:37;;;;;;;11.10;9.93;;;2.50;93.20;;;;;;4986131;28;20187;-88
2021/01/31 07:26:24;;;;;;;11.13;9.83;;;2.50;93.70;;;;;;5001224;28;20202;-88
2021/01/31 07:28:54;;;;;;;11.33;9.97;;;2.50;91.70;;;;;;4998903;28;20199;-87
2021/01/31 07:31:46;;;;;;;10.87;9.37;;;2.50;92.50;;;;;;4999016;28;20577;-87
2021/01/31 07:34:14;;;;;;;10.37;9.37;;;2.40;93.30;;;;;;4998046;28;20167;-88
2021/01/31 07:37:01;;;;;;;11.53;10.37;;;2.50;92.50;;;;;;4986024;28;20234;-87
2021/01/31 07:39:34;;;;;;;12.33;10.13;;;2.50;92.10;;;;;;4991734;28;20193;-88
2021/01/31 07:42:00;;;;;;;11.30;10.20;;;2.60;92.20;;;;;;4995919;28;20198;-88
2021/01/31 07:44:33;;;;;;;10.03;9.03;;;2.50;92.30;;;;;;4990702;28;20198;-88
2021/01/31 07:47:00;;;;;;;11.37;10.17;;;2.50;91.90;;;;;;4992275;28;20222;-88
2021/01/31 07:49:27;;;;;;;13.67;12.13;;;2.50;92.10;;;;;;4985896;28;20175;-88
2021/01/31 07:52:00;;;;;;;20.13;15.27;;;2.50;93.30;;;;;;4985445;28;20667;-88
2021/01/31 07:54:31;;;;;;;15.83;13.87;;;2.70;92.40;;;;;;4985104;28;20160;-88
2021/01/31 07:57:24;;;;;;;23.23;18.43;;;2.70;91.90;;;;;;4985959;28;20349;-88
2021/01/31 07:59:50;;;;;;;17.00;14.50;;;2.70;91.60;;;;;;4985298;28;20163;-88
2021/01/31 08:02:34;;;;;;;13.70;12.30;;;2.80;91.10;;;;;;4993675;28;20194;-87
2021/01/31 08:04:59;;;;;;;13.30;12.00;;;2.80;91.00;;;;;;5004460;28;20664;-87
2021/01/31 08:07:59;;;;;;;12.70;11.37;;;2.80;91.30;;;;;;4989083;28;20223;-86
2021/01/31 08:10:45;;;;;;;11.47;10.37;;;2.80;91.30;;;;;;5004677;28;20285;-87
2021/01/31 08:13:32;;;;;;;10.83;9.73;;;2.80;90.90;;;;;;5004200;28;20233;-88
2021/01/31 08:15:58;;;;;;;12.40;9.93;;;2.80;90.90;;;;;;5005149;28;20713;-87
2021/01/31 08:18:24;;;;;;;14.03;10.67;;;2.80;90.70;;;;;;5004431;28;20214;-88
2021/01/31 08:20:50;;;;;;;11.83;10.63;;;2.90;91.70;;;;;;5003511;28;20194;-88
2021/01/31 08:23:26;;;;;;;11.80;10.57;;;2.90;91.30;;;;;;5004439;28;20210;-88
2021/01/31 08:25:54;;;;;;;11.27;9.73;;;3.00;91.30;;;;;;5004231;28;20190;-87
2021/01/31 08:28:28;;;;;;;10.73;9.73;;;3.00;91.70;;;;;;5003948;28;20210;-87
2021/01/31 08:31:10;;;;;;;11.30;10.07;;;3.00;91.00;;;;;;5005225;28;20609;-88
2021/01/31 08:33:38;;;;;;;12.57;11.13;;;3.10;90.30;;;;;;5004374;28;20186;-87
2021/01/31 08:36:06;;;;;;;17.83;15.97;;;3.10;90.30;;;;;;5003262;28;20186;-87
2021/01/31 08:38:34;;;;;;;20.27;17.97;;;3.20;90.30;;;;;;4984713;28;20277;-87
2021/01/31 08:41:00;;;;;;;12.50;11.20;;;3.10;90.50;;;;;;4991355;28;20237;-88
2021/01/31 08:43:32;;;;;;;11.80;10.57;;;3.10;90.10;;;;;;5007190;28;20186;-87
2021/01/31 08:46:28;;;;;;;11.03;9.27;;;3.00;90.30;;;;;;5007520;28;20612;-87
2021/01/31 08:49:01;;;;;;;11.53;10.27;;;2.90;90.10;;;;;;5006300;28;20194;-87
2021/01/31 08:51:29;;;;;;;10.57;9.53;;;3.00;89.90;;;;;;5007612;28;20305;-88
2021/01/31 08:54:11;;;;;;;12.40;11.10;;;2.90;91.00;;;;;;5006405;28;20182;-88
2021/01/31 08:56:37;;;;;;;10.23;9.23;;;3.00;90.10;;;;;;5007363;28;20192;-88
2021/01/31 08:59:09;;;;;;;12.40;10.43;;;2.90;89.80;;;;;;5007547;28;20602;-87
2021/01/31 09:01:39;;;;;;;16.63;14.70;;;3.00;90.70;;;;;;5001612;28;20190;-86
2021/01/31 09:04:11;;;;;;;15.83;14.23;;;3.00;90.20;;;;;;4996671;28;20178;-88
2021/01/31 09:06:43;;;;;;;19.77;16.70;;;3.10;90.90;;;;;;4996012;28;20198;-89
2021/01/31 09:09:26;;;;;;;20.67;18.30;;;3.10;90.20;;;;;;4987857;28;20175;-88
2021/01/31 09:12:12;;;;;;;11.47;10.33;;;3.10;90.10;;;;;;4994806;28;20242;-88
2021/01/31 09:14:40;;;;;;;12.53;11.23;;;3.10;90.80;;;;;;5001155;28;20209;-88
2021/01/31 09:17:11;;;;;;;12.63;11.33;;;3.20;90.00;;;;;;4995672;28;20206;-87
2021/01/31 09:19:38;;;;;;;12.40;11.13;;;3.20;90.60;;;;;;4998292;28;20182;-87
2021/01/31 09:22:15;;;;;;;11.83;10.63;;;3.30;89.40;;;;;;4997203;28;20215;-87
2021/01/31 09:24:43;;;;;;;10.83;9.60;;;3.30;88.90;;;;;;4987963;28;20167;-87
2021/01/31 09:27:16;;;;;;;12.67;11.37;;;3.40;88.40;;;;;;4999447;28;20250;-88
2021/01/31 09:29:43;;;;;;;11.43;10.23;;;3.40;88.30;;;;;;5004727;28;20175;-87
2021/01/31 09:32:35;;;;;;;12.87;11.23;;;3.50;89.40;;;;;;5002261;28;20213;-88
2021/01/31 09:35:04;;;;;;;11.97;10.77;;;3.60;89.40;;;;;;5007252;28;20650;-88
2021/01/31 09:37:31;;;;;;;11.80;10.60;;;3.60;88.50;;;;;;5010919;28;20225;-87
2021/01/31 09:40:05;;;;;;;11.37;10.27;;;3.70;87.80;;;;;;5005470;28;20190;-87
2021/01/31 09:42:34;;;;;;;12.50;11.30;;;3.50;87.20;;;;;;5000681;28;20215;-87
2021/01/31 09:45:17;;;;;;;14.93;13.37;;;3.50;87.80;;;;;;5006025;28;20190;-88
2021/01/31 09:47:50;;;;;;;12.13;10.30;;;3.50;88.00;;;;;;5006090;28;20225;-87
2021/01/31 09:50:17;;;;;;;13.53;12.10;;;3.50;87.60;;;;;;5006822;28;20182;-87
2021/01/31 09:52:48;;;;;;;17.27;15.57;;;3.60;88.00;;;;;;5006384;28;20189;-87
2021/01/31 09:55:24;;;;;;;13.53;10.63;;;3.60;88.50;;;;;;5004940;28;20195;-88
2021/01/31 09:57:49;;;;;;;12.33;11.10;;;3.60;88.60;;;;;;5005131;28;20280;-88
2021/01/31 10:00:15;;;;;;;12.67;11.17;;;3.60;88.30;;;;;;5002380;28;20195;-88
2021/01/31 10:02:41;;;;;;;12.53;10.77;;;3.70;87.70;;;;;;5005624;28;20197;-87
2021/01/31 10:05:10;;;;;;;12.27;11.00;;;3.60;87.20;;;;;;5006066;28;20266;-87
2021/01/31 10:07:39;;;;;;;12.50;11.30;;;3.60;87.20;;;;;;5005350;28;20218;-87
2021/01/31 10:10:35;;;;;;;12.53;11.23;;;3.50;87.90;;;;;;5007111;28;20174;-87
2021/01/31 10:13:14;;;;;;;11.23;10.13;;;3.50;88.50;;;;;;5006337;28;20189;-87
2021/01/31 10:15:42;;;;;;;10.90;9.80;;;3.60;88.90;;;;;;5006159;28;20185;-87
2021/01/31 10:18:12;;;;;;;15.20;13.60;;;3.70;89.10;;;;;;5001861;28;20212;-88
2021/01/31 10:20:39;;;;;;;11.67;10.47;;;3.80;90.20;;;;;;4996478;28;20250;-88
2021/01/31 10:23:15;;;;;;;12.43;10.97;;;3.70;89.00;;;;;;4996850;28;20198;-88
2021/01/31 10:25:55;;;;;;;14.03;11.43;;;3.80;89.60;;;;;;5001545;28;20228;-88
2021/01/31 10:28:30;;;;;;;12.63;11.33;;;3.80;89.80;;;;;;5007697;28;20713;-88
2021/01/31 10:30:58;;;;;;;10.87;9.80;;;3.90;88.90;;;;;;5006861;28;20633;-88
2021/01/31 10:33:42;;;;;;;12.73;11.30;;;3.90;88.80;;;;;;5007860;28;20183;-88
2021/01/31 10:36:29;;;;;;;12.50;11.20;;;4.00;89.10;;;;;;5005524;28;20668;-88
2021/01/31 10:39:03;;;;;;;12.63;11.23;;;4.10;88.70;;;;;;5007250;28;20294;-88
2021/01/31 10:41:29;;;;;;;13.07;11.67;;;4.10;89.00;;;;;;5007147;28;20236;-88
2021/01/31 10:44:01;;;;;;;12.67;11.37;;;4.20;89.40;;;;;;5001342;28;20190;-87
2021/01/31 10:46:28;;;;;;;13.53;12.13;;;4.20;88.90;;;;;;4993684;28;20216;-87
2021/01/31 10:48:54;;;;;;;13.17;10.93;;;4.40;88.10;;;;;;4990054;28;20198;-88
2021/01/31 10:51:21;;;;;;;11.97;10.73;;;4.30;86.10;;;;;;4993708;28;20198;-88
2021/01/31 10:53:46;;;;;;;14.37;11.50;;;4.30;89.00;;;;;;5003559;28;20186;-88
2021/01/31 10:56:12;;;;;;;12.57;11.10;;;4.40;87.70;;;;;;4995821;28;20191;-88
2021/01/31 10:58:39;;;;;;;12.60;11.40;;;4.50;88.20;;;;;;4992600;28;20273;-88
2021/01/31 11:01:05;;;;;;;13.03;11.53;;;4.60;87.10;;;;;;4998582;28;20189;-87
2021/01/31 11:03:31;;;;;;;13.70;12.30;;;4.60;86.30;;;;;;4993728;28;20198;-87
2021/01/31 11:05:57;;;;;;;13.77;12.47;;;4.60;87.60;;;;;;4989487;28;20183;-88
2021/01/31 11:08:24;;;;;;;12.97;11.63;;;4.70;86.70;;;;;;4993514;28;20210;-88
2021/01/31 11:10:50;;;;;;;11.97;10.83;;;4.60;87.00;;;;;;4993430;28;20225;-88
2021/01/31 11:13:16;;;;;;;12.73;11.43;;;4.70;86.90;;;;;;4995460;28;20190;-88
2021/01/31 11:15:42;;;;;;;11.87;10.67;;;4.80;86.30;;;;;;4987286;28;20178;-87
2021/01/31 11:18:08;;;;;;;12.17;10.93;;;4.80;86.10;;;;;;4993231;28;20236;-87
2021/01/31 11:20:33;;;;;;;12.63;11.17;;;4.80;86.70;;;;;;4983444;28;20269;-87
2021/01/31 11:22:59;;;;;;;12.37;11.07;;;4.70;86.90;;;;;;4984650;28;20174;-87
2021/01/31 11:25:25;;;;;;;12.07;10.83;;;4.60;87.70;;;;;;4990255;28;20225;-87
2021/01/31 11:27:50;;;;;;;13.17;11.40;;;4.60;87.50;;;;;;4998822;28;20285;-87
2021/01/31 11:30:16;;;;;;;12.17;10.97;;;4.50;87.60;;;;;;5002940;28;20193;-88
2021/01/31 11:32:42;;;;;;;11.73;10.60;;;4.50;88.10;;;;;;5018420;28;20194;-87
2021/01/31 11:35:09;;;;;;;12.73;11.00;;;4.50;88.40;;;;;;5002652;28;20221;-88
2021/01/31 11:37:34;;;;;;;13.20;11.97;;;4.60;89.70;;;;;;4985438;28;20253;-87
2021/01/31 11:40:00;;;;;;;13.17;11.83;;;4.60;89.30;;;;;;4989465;28;20641;-87
2021/01/31 11:42:26;;;;;;;11.80;10.17;;;4.70;88.10;;;;;;5002094;28;20289;-88
2021/01/31 11:44:51;;;;;;;12.13;10.83;;;4.70;87.00;;;;;;4997470;28;20202;-86
2021/01/31 11:47:17;;;;;;;12.43;11.20;;;4.70;87.70;;;;;;5013245;28;20328;-87
2021/01/31 11:49:43;;;;;;;15.60;14.00;;;4.70;87.80;;;;;;4997700;28;20708;-87
2021/01/31 11:52:08;;;;;;;12.43;11.10;;;4.80;87.50;;;;;;4994851;28;20194;-88
2021/01/31 11:54:34;;;;;;;31.67;24.90;;;4.80;87.20;;;;;;4986946;28;20187;-87
2021/01/31 11:57:00;;;;;;;21.73;18.90;;;4.80;88.20;;;;;;4988997;28;20221;-87
2021/01/31 11:59:25;;;;;;;20.03;18.13;;;4.80;88.90;;;;;;4999621;28;20182;-87
2021/01/31 12:01:51;;;;;;;14.73;13.33;;;4.80;89.70;;;;;;5002605;28;20186;-87
2021/01/31 12:04:17;;;;;;;12.33;11.20;;;4.80;89.30;;;;;;5000514;28;20197;-87
2021/01/31 12:06:42;;;;;;;14.07;12.67;;;4.80;90.30;;;;;;5003504;28;20208;-87
2021/01/31 12:09:08;;;;;;;13.17;11.87;;;4.90;91.40;;;;;;5003545;28;20191;-87
2021/01/31 12:11:34;;;;;;;15.20;12.43;;;4.90;91.50;;;;;;5003024;28;20194;-87
2021/01/31 12:14:00;;;;;;;12.80;11.50;;;4.80;91.40;;;;;;4999811;28;20183;-87
2021/01/31 12:16:26;;;;;;;13.97;12.67;;;4.80;91.70;;;;;;5004874;28;20194;-88
2021/01/31 12:18:51;;;;;;;15.57;13.83;;;4.80;92.60;;;;;;5007600;28;20214;-87
2021/01/31 12:21:17;;;;;;;13.60;12.20;;;4.80;93.00;;;;;;5005855;28;20254;-87
2021/01/31 12:23:43;;;;;;;13.33;11.97;;;4.80;92.10;;;;;;5006850;28;20194;-87
2021/01/31 12:26:09;;;;;;;12.80;11.50;;;4.80;92.30;;;;;;5004301;28;20272;-87
2021/01/31 12:28:35;;;;;;;12.33;11.03;;;4.80;92.60;;;;;;5005899;28;20217;-87
2021/01/31 12:31:00;;;;;;;12.67;11.47;;;4.70;91.80;;;;;;5015714;28;20688;-87
2021/01/31 12:33:26;;;;;;;12.23;11.03;;;4.70;93.10;;;;;;5004284;28;20189;-87
2021/01/31 12:35:52;;;;;;;14.97;13.43;;;4.70;92.00;;;;;;5006542;28;20179;-87
2021/01/31 12:38:17;;;;;;;17.33;15.73;;;4.70;91.70;;;;;;5007622;28;20213;-87
2021/01/31 12:40:43;;;;;;;13.53;12.13;;;4.70;92.80;;;;;;5005864;28;20190;-87
2021/01/31 12:43:09;;;;;;;14.50;13.17;;;4.70;92.60;;;;;;5005330;28;20186;-87
2021/01/31 12:45:36;;;;;;;15.97;14.37;;;4.70;92.40;;;;;;5002661;28;20198;-87
2021/01/31 12:48:01;;;;;;;13.83;12.20;;;4.70;93.30;;;;;;4994966;28;20239;-87
2021/01/31 12:50:30;;;;;;;17.13;15.57;;;4.70;92.80;;;;;;4990357;28;20258;-88
2021/01/31 12:52:56;;;;;;;16.80;15.20;;;4.80;93.30;;;;;;5001724;28;20182;-87
2021/01/31 12:55:21;;;;;;;14.33;12.83;;;4.70;93.50;;;;;;5021375;28;20186;-87
2021/01/31 12:57:47;;;;;;;14.97;13.50;;;4.70;93.70;;;;;;5004026;28;20209;-88
2021/01/31 13:00:16;;;;;;;14.30;12.80;;;4.70;94.00;;;;;;5003497;28;20201;-87
2021/01/31 13:02:42;;;;;;;18.17;16.47;;;4.70;95.00;;;;;;5000847;28;20202;-86
2021/01/31 13:05:09;;;;;;;16.07;14.43;;;4.60;95.00;;;;;;4996892;28;20195;-87
2021/01/31 13:07:35;;;;;;;15.47;13.97;;;4.50;96.70;;;;;;5001712;28;20224;-87
2021/01/31 13:10:01;;;;;;;17.93;16.23;;;4.50;95.60;;;;;;4998242;28;20238;-87